Time;durP1;ratioP1;P1;durP2;ratioP2;P2;SDS_P1;SDS_P2;PMS_P1;PMS_P2;Temp;Humidity;BMP_temperature;BMP_pressure;BME280_temperature;BME280_humidity;BME280_pressure;Samples;Min_cycle;Max_cycle;Signal;HPM_P1;HPM_P2
2022/02/22 00:00:51;;;;;;;4.65;1.50;;;;;;;3.10;81.81;96435.94;2072474;28;20197;-66
2022/02/22 00:01:53;;;;;;;4.85;1.52;;;;;;;3.16;81.73;96458.16;2072834;28;20210;-66
2022/02/22 00:02:54;;;;;;;9.40;2.20;;;;;;;3.09;82.17;96448.94;2072830;28;20202;-65
2022/02/22 00:03:58;;;;;;;7.43;1.85;;;;;;;3.09;82.14;96449.78;2072070;28;20289;-66
2022/02/22 00:05:00;;;;;;;6.20;2.33;;;;;;;3.12;81.71;96451.41;2071634;28;20217;-67
2022/02/22 00:06:05;;;;;;;8.18;1.60;;;;;;;3.14;81.73;96453.03;2072976;28;20229;-66
2022/02/22 00:07:06;;;;;;;11.18;1.92;;;;;;;3.10;81.12;96435.94;2069954;28;20201;-66
2022/02/22 00:08:08;;;;;;;11.00;1.55;;;;;;;3.10;81.32;96450.63;2071035;28;20205;-66
2022/02/22 00:09:09;;;;;;;10.85;1.60;;;;;;;3.11;81.59;96457.47;2070876;28;20212;-66
2022/02/22 00:10:14;;;;;;;9.48;1.58;;;;;;;3.12;81.65;96464.34;2072980;28;20198;-66
2022/02/22 00:11:16;;;;;;;8.90;1.55;;;;;;;3.06;82.37;96464.59;2072903;28;20209;-66
2022/02/22 00:12:17;;;;;;;9.40;1.50;;;;;;;3.03;82.66;96460.38;2072495;28;20193;-66
2022/02/22 00:13:19;;;;;;;5.85;2.40;;;;;;;2.99;82.94;96474.34;2070262;28;20206;-67
2022/02/22 00:14:21;;;;;;;8.13;1.50;;;;;;;3.03;81.51;96459.56;2070525;28;20198;-66
2022/02/22 00:15:23;;;;;;;8.68;1.50;;;;;;;3.02;81.60;96463.88;2071588;28;20198;-66
2022/02/22 00:16:24;;;;;;;7.07;1.50;;;;;;;3.01;80.08;96462.19;2072806;28;20210;-66
2022/02/22 00:17:27;;;;;;;8.27;1.52;;;;;;;3.08;79.84;96475.75;2071824;28;20201;-66
2022/02/22 00:18:29;;;;;;;6.57;1.90;;;;;;;3.00;80.49;96449.31;2071186;28;20201;-66
2022/02/22 00:19:30;;;;;;;5.47;1.90;;;;;;;3.13;79.83;96476.38;2070577;28;20736;-66
2022/02/22 00:20:32;;;;;;;5.90;1.42;;;;;;;3.15;79.53;96479.75;2072820;28;20198;-66
2022/02/22 00:21:34;;;;;;;7.22;1.45;;;;;;;3.14;80.17;96483.25;2072463;28;20206;-66
2022/02/22 00:22:37;;;;;;;12.48;3.33;;;;;;;3.09;80.07;96474.81;2070521;28;20209;-68
2022/02/22 00:23:39;;;;;;;11.20;1.45;;;;;;;3.12;79.11;96483.31;2071543;28;20205;-65
2022/02/22 00:24:40;;;;;;;5.75;0.95;;;;;;;3.10;79.76;96484.28;2072360;28;20684;-66
2022/02/22 00:25:42;;;;;;;3.28;1.15;;;;;;;3.06;80.93;96483.56;2071493;28;20205;-66
2022/02/22 00:26:44;;;;;;;6.60;1.80;;;;;;;3.15;80.63;96490.09;2071649;28;20194;-65
2022/02/22 00:27:46;;;;;;;13.95;1.55;;;;;;;3.08;80.31;96483.50;2071004;28;20403;-66
2022/02/22 00:28:47;;;;;;;7.32;1.67;;;;;;;2.96;80.47;96469.31;2071886;28;20205;-66
2022/02/22 00:29:49;;;;;;;10.18;1.45;;;;;;;3.10;80.35;96500.63;2071420;28;20228;-65
2022/02/22 00:30:51;;;;;;;11.13;1.90;;;;;;;3.14;80.40;96497.03;2077087;28;20203;-66
2022/02/22 00:31:53;;;;;;;7.03;1.45;;;;;;;3.12;80.20;96500.59;2075989;28;20197;-65
2022/02/22 00:32:54;;;;;;;8.63;1.80;;;;;;;3.09;80.88;96495.53;2072203;28;20573;-65
2022/02/22 00:33:56;;;;;;;3.13;1.40;;;;;;;3.06;80.10;96506.84;2072631;28;20236;-66
2022/02/22 00:34:57;;;;;;;4.25;1.08;;;;;;;2.65;80.34;96443.84;2072180;28;20711;-65
2022/02/22 00:35:59;;;;;;;7.78;1.25;;;;;;;2.93;80.16;96483.19;2072595;28;20200;-66
2022/02/22 00:37:01;;;;;;;5.38;1.20;;;;;;;3.01;80.06;96503.59;2072711;28;20297;-66
2022/02/22 00:38:02;;;;;;;9.50;1.70;;;;;;;2.92;80.24;96488.44;2072473;28;20193;-66
2022/02/22 00:39:05;;;;;;;8.75;1.60;;;;;;;3.02;79.59;96501.84;2072776;28;20194;-65
2022/02/22 00:40:08;;;;;;;7.75;1.75;;;;;;;3.03;79.83;96516.47;2071417;28;20253;-65
2022/02/22 00:41:09;;;;;;;9.63;1.67;;;;;;;2.97;80.15;96500.28;2070252;28;20209;-65
2022/02/22 00:42:11;;;;;;;9.95;1.50;;;;;;;3.02;79.56;96507.00;2072753;28;20199;-65
2022/02/22 00:43:12;;;;;;;10.30;1.30;;;;;;;3.02;79.41;96515.63;2072534;28;20193;-65
2022/02/22 00:44:16;;;;;;;17.65;1.63;;;;;;;3.04;78.81;96519.00;2066964;28;20229;-65
2022/02/22 00:45:17;;;;;;;10.77;2.35;;;;;;;3.03;78.69;96517.31;2061440;28;20639;-66
2022/02/22 00:46:19;;;;;;;15.60;1.65;;;;;;;3.05;78.36;96530.19;2071750;28;20204;-65
2022/02/22 00:47:21;;;;;;;7.70;1.55;;;;;;;3.12;78.44;96531.63;2070345;28;20202;-65
2022/02/22 00:48:23;;;;;;;11.15;1.10;;;;;;;3.08;78.79;96524.91;2071737;28;20198;-65
2022/02/22 00:49:26;;;;;;;6.75;1.40;;;;;;;3.04;79.91;96531.06;2071736;28;20240;-65
2022/02/22 00:50:28;;;;;;;9.18;1.60;;;;;;;3.07;79.65;96530.97;2071306;28;20198;-66
2022/02/22 00:51:30;;;;;;;5.13;1.48;;;;;;;3.08;79.44;96541.25;2071862;28;20202;-66
2022/02/22 00:52:32;;;;;;;6.47;1.48;;;;;;;3.11;79.83;96541.13;2070653;28;20205;-66
2022/02/22 00:53:33;;;;;;;11.32;1.77;;;;;;;3.03;79.31;96514.72;2069016;28;20198;-66
2022/02/22 00:54:35;;;;;;;10.63;1.70;;;;;;;3.13;78.67;96533.31;2072055;28;20226;-65
2022/02/22 00:55:36;;;;;;;12.02;1.35;;;;;;;3.21;78.18;96530.41;2072325;28;20193;-66
2022/02/22 00:56:38;;;;;;;15.68;2.95;;;;;;;3.19;78.58;96539.97;2070672;28;20198;-66
2022/02/22 00:57:41;;;;;;;6.22;1.23;;;;;;;3.13;78.66;96523.78;2071831;28;20205;-65
2022/02/22 00:58:43;;;;;;;7.65;1.80;;;;;;;3.17;79.36;96530.56;2072461;28;20210;-65
2022/02/22 00:59:44;;;;;;;7.80;1.40;;;;;;;3.14;79.98;96525.50;2071523;28;20754;-66
2022/02/22 01:00:46;;;;;;;9.85;1.65;;;;;;;3.12;79.73;96526.47;2072220;28;20202;-66
2022/02/22 01:01:48;;;;;;;5.85;1.25;;;;;;;3.21;80.34;96535.59;2072193;28;20198;-66
2022/02/22 01:02:50;;;;;;;13.32;1.65;;;;;;;3.10;80.68;96533.44;2072484;28;20204;-66
2022/02/22 01:03:51;;;;;;;4.55;1.83;;;;;;;3.14;81.15;96550.53;2074354;28;20249;-66
2022/02/22 01:04:53;;;;;;;8.90;2.20;;;;;;;3.09;82.37;96544.69;2071985;28;20237;-65
2022/02/22 01:05:54;;;;;;;4.75;2.15;;;;;;;2.97;82.74;96536.50;2071620;28;20209;-67
2022/02/22 01:06:56;;;;;;;9.50;1.75;;;;;;;2.92;83.58;96530.69;2071469;28;20210;-67
2022/02/22 01:07:57;;;;;;;14.02;1.65;;;;;;;2.89;83.85;96527.38;2071827;28;20692;-65
2022/02/22 01:08:59;;;;;;;8.52;2.33;;;;;;;2.96;84.49;96552.09;2072225;28;20203;-66
2022/02/22 01:10:03;;;;;;;4.25;1.40;;;;;;;2.96;84.10;96562.47;2071849;28;20226;-66
2022/02/22 01:11:05;;;;;;;6.10;1.50;;;;;;;2.66;84.66;96510.16;2072173;28;20217;-66
2022/02/22 01:12:09;;;;;;;12.30;1.88;;;;;;;2.96;83.96;96563.28;2071219;28;20202;-66
2022/02/22 01:13:10;;;;;;;4.38;1.60;;;;;;;2.94;83.44;96567.69;2072301;28;20213;-65
2022/02/22 01:14:12;;;;;;;9.38;1.35;;;;;;;2.83;83.41;96545.72;2071576;28;20205;-66
2022/02/22 01:15:14;;;;;;;4.95;1.15;;;;;;;2.96;83.74;96568.47;2071982;28;20526;-66
2022/02/22 01:16:15;;;;;;;7.72;2.05;;;;;;;2.94;84.25;96564.22;2071461;28;20209;-66
2022/02/22 01:17:18;;;;;;;13.30;2.20;;;;;;;2.94;84.07;96570.28;2076617;28;20201;-65
2022/02/22 01:18:19;;;;;;;12.68;1.45;;;;;;;2.92;83.48;96561.72;2074705;28;20197;-65
2022/02/22 01:19:21;;;;;;;11.32;1.58;;;;;;;3.01;83.50;96570.88;2071919;28;20663;-65
2022/02/22 01:20:22;;;;;;;5.97;1.35;;;;;;;2.98;83.11;96571.00;2072158;28;20207;-65
2022/02/22 01:21:25;;;;;;;4.75;1.25;;;;;;;2.97;83.69;96569.31;2069520;28;20197;-65
2022/02/22 01:22:26;;;;;;;11.52;1.83;;;;;;;2.92;83.74;96572.06;2072384;28;20229;-66
2022/02/22 01:23:28;;;;;;;9.27;2.13;;;;;;;2.91;83.25;96570.38;2072405;28;20201;-65
2022/02/22 01:24:29;;;;;;;10.35;1.73;;;;;;;2.87;83.76;96574.00;2071810;28;20197;-65
2022/02/22 01:25:31;;;;;;;4.82;1.40;;;;;;;2.69;83.94;96549.69;2072018;28;20200;-66
2022/02/22 01:26:33;;;;;;;11.10;2.20;;;;;;;2.80;82.89;96575.13;2072253;28;20198;-65
2022/02/22 01:27:37;;;;;;;7.97;1.15;;;;;;;2.84;82.53;96568.91;2071908;28;21014;-65
2022/02/22 01:28:39;;;;;;;15.02;2.05;;;;;;;2.78;81.88;96582.09;2071370;28;20209;-65
2022/02/22 01:29:40;;;;;;;6.75;1.15;;;;;;;2.85;81.93;96574.97;2070733;28;20648;-65
2022/02/22 01:30:42;;;;;;;12.07;1.50;;;;;;;2.85;81.91;96585.31;2071546;28;20198;-65
2022/02/22 01:31:44;;;;;;;5.50;1.30;;;;;;;2.86;81.95;96580.06;2072234;28;20209;-66
2022/02/22 01:32:46;;;;;;;7.10;1.10;;;;;;;2.83;81.65;96580.19;2070412;28;20206;-67
2022/02/22 01:33:50;;;;;;;7.03;1.67;;;;;;;2.81;81.49;96588.91;2068665;28;20213;-66
2022/02/22 01:34:52;;;;;;;6.93;1.35;;;;;;;2.82;81.87;96594.00;2069638;28;20230;-66
2022/02/22 01:35:53;;;;;;;6.35;1.45;;;;;;;2.63;82.17;96567.19;2071964;28;20209;-65
2022/02/22 01:36:55;;;;;;;6.20;1.40;;;;;;;2.75;82.20;96597.75;2071781;28;20195;-66
2022/02/22 01:37:57;;;;;;;7.32;1.42;;;;;;;2.76;81.87;96594.25;2071064;28;20213;-65
2022/02/22 01:38:58;;;;;;;7.93;1.13;;;;;;;2.68;81.87;96584.19;2071432;28;20209;-65
2022/02/22 01:40:00;;;;;;;7.68;1.75;;;;;;;2.68;82.45;96601.44;2071055;28;20635;-65
2022/02/22 01:41:02;;;;;;;7.72;1.20;;;;;;;2.70;82.84;96602.22;2072000;28;20778;-65
2022/02/22 01:42:04;;;;;;;5.40;1.40;;;;;;;2.66;82.75;96596.31;2072047;28;20204;-65
2022/02/22 01:43:06;;;;;;;4.68;1.38;;;;;;;2.70;82.76;96604.81;2071761;28;20208;-65
2022/02/22 01:44:07;;;;;;;10.98;1.80;;;;;;;2.66;83.18;96601.50;2071308;28;20213;-65
2022/02/22 01:45:09;;;;;;;6.22;1.30;;;;;;;2.63;83.45;96605.97;2071301;28;20230;-65
2022/02/22 01:46:12;;;;;;;5.30;1.00;;;;;;;2.49;83.83;96584.03;2071998;28;20197;-66
2022/02/22 01:47:16;;;;;;;5.00;0.95;;;;;;;2.57;83.58;96594.09;2071223;28;20536;-66
2022/02/22 01:48:17;;;;;;;7.72;1.50;;;;;;;2.53;84.20;96595.97;2071184;28;20265;-65
2022/02/22 01:49:19;;;;;;;7.93;1.00;;;;;;;2.37;84.03;96568.97;2069585;28;20200;-65
2022/02/22 01:50:20;;;;;;;7.78;1.60;;;;;;;2.47;84.14;96600.50;2071409;28;20208;-65
2022/02/22 01:51:22;;;;;;;4.60;1.10;;;;;;;2.41;82.76;96580.03;2071925;28;20219;-66
2022/02/22 01:52:24;;;;;;;2.25;1.15;;;;;;;2.51;82.96;96597.75;2071615;28;20202;-66
2022/02/22 01:53:25;;;;;;;2.58;1.10;;;;;;;2.57;82.73;96605.28;2071282;28;20213;-66
2022/02/22 01:54:27;;;;;;;3.83;1.05;;;;;;;2.59;82.75;96610.41;2071482;28;20206;-66
2022/02/22 01:55:30;;;;;;;3.22;0.90;;;;;;;2.59;82.95;96600.06;2068711;28;20198;-66
2022/02/22 01:56:32;;;;;;;4.70;1.30;;;;;;;2.55;82.96;96601.06;2070627;28;20244;-66
2022/02/22 01:57:34;;;;;;;2.88;1.33;;;;;;;2.56;83.23;96600.16;2072008;28;20198;-66
2022/02/22 01:58:36;;;;;;;4.82;1.92;;;;;;;2.56;82.87;96616.50;2070840;28;20220;-65
2022/02/22 01:59:37;;;;;;;14.07;1.60;;;;;;;2.53;82.82;96618.38;2071295;28;20228;-65
2022/02/22 02:00:42;;;;;;;5.35;1.30;;;;;;;2.38;83.36;96596.50;2071328;28;20193;-65
2022/02/22 02:01:46;;;;;;;4.15;1.65;;;;;;;2.53;83.79;96610.63;2069596;28;20693;-65
2022/02/22 02:02:51;;;;;;;6.70;1.20;;;;;;;2.54;83.99;96625.22;2068786;28;20213;-65
2022/02/22 02:03:54;;;;;;;8.82;1.48;;;;;;;2.62;84.23;96625.78;2070455;28;20194;-65
2022/02/22 02:04:55;;;;;;;6.60;2.00;;;;;;;2.59;84.52;96613.00;2070732;28;20716;-65
2022/02/22 02:05:57;;;;;;;13.50;2.35;;;;;;;2.60;84.52;96624.16;2071023;28;20336;-65
2022/02/22 02:06:59;;;;;;;10.85;1.85;;;;;;;2.53;85.40;96616.63;2068000;28;20207;-66
2022/02/22 02:08:00;;;;;;;12.88;2.55;;;;;;;2.57;85.39;96618.22;2067105;28;20214;-66
2022/02/22 02:09:07;;;;;;;13.88;2.80;;;;;;;2.57;85.30;96625.97;2079047;28;20189;-65
2022/02/22 02:10:09;;;;;;;12.85;2.20;;;;;;;2.58;85.41;96629.38;2077367;28;20229;-65
2022/02/22 02:11:11;;;;;;;11.10;2.05;;;;;;;2.61;85.24;96631.88;2071636;28;20732;-65
2022/02/22 02:12:12;;;;;;;12.68;2.42;;;;;;;2.53;85.20;96616.63;2071282;28;20205;-65
2022/02/22 02:13:14;;;;;;;9.32;2.20;;;;;;;2.59;84.97;96631.09;2071463;28;20495;-66
2022/02/22 02:14:17;;;;;;;9.70;2.50;;;;;;;2.62;85.03;96630.13;2069824;28;20210;-65
2022/02/22 02:15:19;;;;;;;6.65;1.92;;;;;;;2.63;85.33;96637.00;2071932;28;20552;-65
2022/02/22 02:16:21;;;;;;;20.83;2.05;;;;;;;2.58;84.82;96619.03;2071843;28;20822;-65
2022/02/22 02:17:22;;;;;;;7.95;1.60;;;;;;;2.64;84.95;96636.09;2071813;28;20671;-65
2022/02/22 02:18:23;;;;;;;9.05;1.25;;;;;;;2.62;84.94;96625.78;2071587;28;20194;-65
2022/02/22 02:19:25;;;;;;;8.60;1.67;;;;;;;2.61;84.94;96634.47;2070313;28;20214;-65
2022/02/22 02:20:27;;;;;;;14.80;1.80;;;;;;;2.61;84.54;96629.28;2071695;28;20195;-65
2022/02/22 02:21:29;;;;;;;8.75;1.90;;;;;;;2.69;84.35;96641.94;2071142;28;20672;-65
2022/02/22 02:22:30;;;;;;;8.63;2.00;;;;;;;2.62;84.52;96638.72;2071682;28;20232;-65
2022/02/22 02:23:32;;;;;;;9.98;2.17;;;;;;;2.30;84.33;96577.84;2070054;28;20232;-65
2022/02/22 02:24:33;;;;;;;8.75;1.30;;;;;;;2.69;83.94;96647.13;2070723;28;20274;-65
2022/02/22 02:25:35;;;;;;;7.60;1.92;;;;;;;2.64;83.53;96630.91;2071597;28;20666;-66
2022/02/22 02:26:38;;;;;;;9.85;1.60;;;;;;;2.60;83.14;96624.16;2071101;28;20699;-65
2022/02/22 02:27:39;;;;;;;8.20;1.75;;;;;;;2.69;82.68;96636.78;2071823;28;20693;-65
2022/02/22 02:28:41;;;;;;;5.68;1.38;;;;;;;2.67;82.63;96628.22;2071607;28;20206;-65
2022/02/22 02:29:44;;;;;;;13.80;1.80;;;;;;;2.68;82.82;96638.50;2070922;28;20229;-66
2022/02/22 02:30:46;;;;;;;7.82;1.98;;;;;;;2.67;81.67;96630.81;2071204;28;20194;-66
2022/02/22 02:31:51;;;;;;;8.27;1.40;;;;;;;2.77;81.27;96642.50;2071464;28;20206;-65
2022/02/22 02:32:54;;;;;;;10.48;1.50;;;;;;;2.62;81.55;96618.03;2071319;28;20206;-66
2022/02/22 02:33:58;;;;;;;14.88;2.50;;;;;;;2.75;81.37;96637.38;2071321;28;20212;-65
2022/02/22 02:35:00;;;;;;;10.80;1.67;;;;;;;2.71;81.88;96645.31;2070891;28;20588;-66
2022/02/22 02:36:02;;;;;;;9.32;2.00;;;;;;;2.69;81.12;96634.19;2070884;28;20198;-65
2022/02/22 02:37:03;;;;;;;7.65;1.60;;;;;;;2.69;81.18;96637.59;2071768;28;20202;-65
2022/02/22 02:38:05;;;;;;;8.40;1.70;;;;;;;2.66;81.58;96642.03;2071776;28;20198;-65
2022/02/22 02:39:11;;;;;;;6.43;1.85;;;;;;;2.44;81.47;96616.13;2070541;28;20740;-65
2022/02/22 02:40:13;;;;;;;11.45;1.60;;;;;;;2.60;81.62;96643.09;2071160;28;20201;-65
2022/02/22 02:41:14;;;;;;;9.43;1.80;;;;;;;2.48;81.74;96638.38;2071104;28;20224;-65
2022/02/22 02:42:17;;;;;;;15.15;2.13;;;;;;;2.54;81.85;96649.34;2071647;28;20462;-65
2022/02/22 02:43:19;;;;;;;6.93;1.60;;;;;;;2.49;82.29;96650.41;2071668;28;20198;-65
2022/02/22 02:44:22;;;;;;;3.95;1.35;;;;;;;2.47;82.21;96653.06;2070832;28;20255;-65
2022/02/22 02:45:26;;;;;;;7.68;1.75;;;;;;;2.44;82.25;96652.31;2071709;28;20213;-65
2022/02/22 02:46:27;;;;;;;7.80;1.33;;;;;;;2.44;82.32;96657.50;2071661;28;20195;-66
2022/02/22 02:47:29;;;;;;;6.70;1.40;;;;;;;2.43;82.30;96651.47;2071163;28;20205;-66
2022/02/22 02:48:30;;;;;;;9.52;1.40;;;;;;;2.27;82.24;96629.63;2071198;28;20201;-66
2022/02/22 02:49:32;;;;;;;18.67;2.10;;;;;;;2.38;82.54;96649.03;2071131;28;20569;-65
2022/02/22 02:50:34;;;;;;;8.02;1.55;;;;;;;2.43;81.75;96654.06;2071616;28;20249;-65
2022/02/22 02:51:37;;;;;;;6.18;2.13;;;;;;;2.46;81.69;96666.03;2071486;28;20243;-65
2022/02/22 02:52:38;;;;;;;11.55;1.67;;;;;;;2.43;81.83;96660.97;2070975;28;20199;-65
2022/02/22 02:53:40;;;;;;;11.82;1.70;;;;;;;2.43;81.99;96661.81;2070648;28;20202;-66
2022/02/22 02:54:42;;;;;;;12.60;1.63;;;;;;;2.39;82.33;96662.81;2070218;28;20244;-65
2022/02/22 02:55:43;;;;;;;4.00;1.33;;;;;;;2.38;82.49;96664.56;2070871;28;20208;-66
2022/02/22 02:56:45;;;;;;;10.00;1.75;;;;;;;2.23;82.40;96638.41;2071017;28;20198;-66
2022/02/22 02:57:46;;;;;;;9.60;1.50;;;;;;;2.34;82.56;96662.13;2070977;28;20371;-65
2022/02/22 02:58:49;;;;;;;11.52;2.45;;;;;;;2.33;82.62;96663.88;2070485;28;20677;-66
2022/02/22 02:59:51;;;;;;;9.98;1.67;;;;;;;2.35;82.74;96669.84;2071033;28;20229;-65
2022/02/22 03:00:53;;;;;;;7.15;1.73;;;;;;;2.33;82.39;96668.19;2070828;28;20814;-66
2022/02/22 03:01:54;;;;;;;8.48;1.40;;;;;;;2.38;81.89;96661.13;2069109;28;20217;-66
2022/02/22 03:02:56;;;;;;;9.27;1.75;;;;;;;2.40;82.15;96668.84;2070912;28;20202;-65
2022/02/22 03:03:57;;;;;;;4.90;1.50;;;;;;;2.38;82.58;96674.88;2071601;28;20209;-65
2022/02/22 03:04:59;;;;;;;7.82;1.60;;;;;;;2.27;82.61;96647.72;2069166;28;20222;-65
2022/02/22 03:06:03;;;;;;;18.70;1.83;;;;;;;2.33;82.61;96648.38;2070504;28;20208;-66
2022/02/22 03:07:04;;;;;;;3.35;1.10;;;;;;;2.40;82.65;96663.66;2071008;28;20544;-66
2022/02/22 03:08:06;;;;;;;16.80;2.22;;;;;;;2.43;82.55;96674.75;2071431;28;20205;-66
2022/02/22 03:09:08;;;;;;;3.47;1.33;;;;;;;2.41;83.04;96670.50;2071487;28;20202;-65
2022/02/22 03:10:09;;;;;;;19.55;2.20;;;;;;;2.32;83.52;96669.09;2071009;28;20708;-66
2022/02/22 03:11:12;;;;;;;4.68;1.55;;;;;;;2.36;83.33;96679.28;2071489;28;20198;-66
2022/02/22 03:12:13;;;;;;;7.43;1.52;;;;;;;2.37;83.68;96674.94;2071294;28;20205;-66
2022/02/22 03:13:15;;;;;;;8.07;1.83;;;;;;;2.37;83.18;96678.38;2071427;28;20197;-66
2022/02/22 03:14:18;;;;;;;9.77;1.40;;;;;;;2.42;83.31;96683.38;2070002;28;20210;-65
2022/02/22 03:15:19;;;;;;;7.70;2.20;;;;;;;2.45;83.17;96675.53;2071236;28;20210;-65
2022/02/22 03:16:21;;;;;;;13.93;1.38;;;;;;;2.47;83.05;96675.47;2070513;28;20218;-65
2022/02/22 03:17:23;;;;;;;16.70;1.45;;;;;;;2.46;83.38;96674.63;2071534;28;20224;-66
2022/02/22 03:18:24;;;;;;;13.25;2.05;;;;;;;2.47;83.76;96681.50;2070845;28;20209;-66
2022/02/22 03:19:26;;;;;;;9.98;1.88;;;;;;;2.35;84.27;96687.94;2069761;28;20194;-65
2022/02/22 03:20:27;;;;;;;7.82;1.45;;;;;;;2.31;84.36;96673.44;2070684;28;20205;-66
2022/02/22 03:21:31;;;;;;;8.93;1.63;;;;;;;2.23;84.68;96665.09;2062557;28;20560;-66
2022/02/22 03:22:33;;;;;;;7.22;1.75;;;;;;;2.34;84.69;96688.81;2070654;28;20204;-66
2022/02/22 03:23:35;;;;;;;15.73;2.22;;;;;;;2.34;84.74;96688.00;2069511;28;20200;-66
2022/02/22 03:24:36;;;;;;;8.18;1.98;;;;;;;2.31;85.23;96688.06;2071149;28;20713;-65
2022/02/22 03:25:38;;;;;;;6.85;1.65;;;;;;;2.32;85.07;96694.94;2070490;28;20201;-65
2022/02/22 03:26:39;;;;;;;14.70;1.88;;;;;;;2.32;85.38;96700.13;2071094;28;20556;-66
2022/02/22 03:27:40;;;;;;;9.38;1.77;;;;;;;2.29;85.43;96701.06;2069941;28;20198;-65
2022/02/22 03:28:42;;;;;;;7.95;1.58;;;;;;;2.24;85.44;96694.38;2070394;28;20207;-66
2022/02/22 03:29:44;;;;;;;18.83;1.77;;;;;;;2.24;85.11;96699.53;2070408;28;20229;-66
2022/02/22 03:30:46;;;;;;;15.05;2.05;;;;;;;2.25;85.33;96698.63;2071063;28;20204;-66
2022/02/22 03:31:48;;;;;;;5.47;1.65;;;;;;;2.10;85.36;96679.34;2072586;28;20210;-65
2022/02/22 03:32:51;;;;;;;6.75;1.52;;;;;;;2.27;85.38;96708.00;2072517;28;20203;-66
2022/02/22 03:33:52;;;;;;;8.63;1.40;;;;;;;2.20;84.92;96701.38;2073015;28;20649;-66
2022/02/22 03:34:54;;;;;;;16.33;1.85;;;;;;;2.16;84.95;96694.63;2072253;28;20591;-66
2022/02/22 03:35:55;;;;;;;6.78;1.75;;;;;;;2.27;84.94;96720.94;2070870;28;20205;-66
2022/02/22 03:36:57;;;;;;;4.57;1.27;;;;;;;2.19;84.82;96710.00;2072463;28;20209;-66
2022/02/22 03:37:58;;;;;;;4.80;1.50;;;;;;;2.17;85.05;96702.31;2072452;28;20198;-66
2022/02/22 03:39:00;;;;;;;11.10;2.28;;;;;;;2.08;84.84;96691.44;2072680;28;20205;-66
2022/02/22 03:40:01;;;;;;;5.60;1.80;;;;;;;1.84;85.03;96662.09;2071031;28;20226;-65
2022/02/22 03:41:03;;;;;;;13.40;1.65;;;;;;;2.20;85.17;96723.81;2072477;28;20194;-66
2022/02/22 03:42:04;;;;;;;7.20;1.50;;;;;;;2.20;85.20;96728.97;2071512;28;20210;-66
2022/02/22 03:43:06;;;;;;;12.30;3.00;;;;;;;2.24;85.57;96735.72;2071061;28;20233;-66
2022/02/22 03:44:08;;;;;;;11.13;2.13;;;;;;;2.25;85.17;96733.06;2072996;28;20226;-66
2022/02/22 03:45:12;;;;;;;7.53;1.40;;;;;;;2.25;85.35;96740.81;2071717;28;20643;-65
2022/02/22 03:46:13;;;;;;;11.20;1.92;;;;;;;2.23;85.52;96742.59;2072413;28;20203;-66
2022/02/22 03:47:15;;;;;;;4.22;1.98;;;;;;;2.25;85.21;96738.22;2072033;28;20194;-65
2022/02/22 03:48:16;;;;;;;5.88;1.42;;;;;;;2.17;85.14;96722.97;2073003;28;20198;-66
2022/02/22 03:49:18;;;;;;;10.60;1.95;;;;;;;2.28;85.03;96739.91;2070990;28;20290;-66
2022/02/22 03:50:20;;;;;;;14.32;2.35;;;;;;;2.17;85.04;96722.97;2072532;28;20204;-66
2022/02/22 03:51:21;;;;;;;9.07;2.17;;;;;;;2.28;85.33;96743.31;2073087;28;20201;-65
2022/02/22 03:52:24;;;;;;;5.13;1.50;;;;;;;2.24;85.06;96736.56;2072313;28;20652;-65
2022/02/22 03:53:26;;;;;;;7.10;1.77;;;;;;;2.24;85.11;96733.13;2073168;28;20205;-65
2022/02/22 03:54:27;;;;;;;6.05;1.85;;;;;;;2.27;85.16;96736.44;2072402;28;20321;-65
2022/02/22 03:55:29;;;;;;;9.85;1.70;;;;;;;2.27;85.34;96745.94;2072919;28;20220;-66
2022/02/22 03:56:30;;;;;;;13.95;2.55;;;;;;;2.22;85.55;96753.84;2071713;28;20202;-66
2022/02/22 03:57:33;;;;;;;4.95;1.90;;;;;;;2.25;85.59;96758.06;2073041;28;20194;-66
2022/02/22 03:58:35;;;;;;;7.35;1.70;;;;;;;2.17;85.95;96743.66;2072834;28;20198;-66
2022/02/22 03:59:36;;;;;;;5.72;1.42;;;;;;;2.19;86.06;96751.38;2072603;28;20219;-66
2022/02/22 04:00:38;;;;;;;9.75;2.45;;;;;;;2.17;86.12;96763.50;2070548;28;20198;-66
2022/02/22 04:01:40;;;;;;;9.45;2.20;;;;;;;2.15;86.29;96757.53;2072217;28;20232;-66
2022/02/22 04:02:41;;;;;;;7.13;2.03;;;;;;;2.07;86.62;96754.34;2072284;28;20244;-66
2022/02/22 04:03:43;;;;;;;6.47;1.77;;;;;;;1.98;86.76;96732.25;2069149;28;20204;-66
2022/02/22 04:04:44;;;;;;;5.30;1.58;;;;;;;2.09;86.68;96749.97;2069846;28;20223;-65
2022/02/22 04:05:46;;;;;;;8.32;1.80;;;;;;;2.08;86.80;96749.16;2071195;28;20221;-65
2022/02/22 04:06:48;;;;;;;11.25;2.08;;;;;;;2.09;86.91;96745.66;2072236;28;20198;-65
2022/02/22 04:07:50;;;;;;;8.80;1.80;;;;;;;1.95;87.12;96738.34;2072647;28;20201;-65
2022/02/22 04:08:51;;;;;;;11.45;1.88;;;;;;;2.10;86.83;96762.03;2069644;28;20198;-65
2022/02/22 04:09:53;;;;;;;5.93;1.88;;;;;;;1.98;86.65;96742.59;2069318;28;20233;-66
2022/02/22 04:10:54;;;;;;;10.40;1.77;;;;;;;2.07;87.10;96768.13;2070470;28;20194;-66
2022/02/22 04:11:56;;;;;;;8.10;2.30;;;;;;;1.96;86.54;96744.34;2071170;28;20209;-65
2022/02/22 04:12:57;;;;;;;6.68;2.00;;;;;;;2.07;86.57;96756.94;2071948;28;20893;-66
2022/02/22 04:13:59;;;;;;;9.27;2.20;;;;;;;2.06;86.64;96755.22;2072601;28;20205;-66
2022/02/22 04:15:01;;;;;;;8.68;2.13;;;;;;;1.95;86.60;96748.69;2072030;28;20229;-66
2022/02/22 04:16:02;;;;;;;11.80;2.63;;;;;;;2.05;86.94;96764.72;2070786;28;20214;-65
2022/02/22 04:17:05;;;;;;;6.07;2.10;;;;;;;2.06;87.02;96766.44;2071034;28;20225;-65
2022/02/22 04:18:06;;;;;;;8.10;1.63;;;;;;;2.06;86.50;96776.78;2072865;28;20201;-65
2022/02/22 04:19:08;;;;;;;7.20;1.67;;;;;;;2.04;86.41;96764.78;2072848;28;20536;-65
2022/02/22 04:20:10;;;;;;;7.95;1.80;;;;;;;2.02;86.37;96779.47;2072225;28;20214;-66
2022/02/22 04:21:12;;;;;;;17.83;2.90;;;;;;;1.98;86.06;96758.09;2072852;28;20209;-66
2022/02/22 04:22:13;;;;;;;13.15;2.00;;;;;;;2.07;85.98;96778.44;2071523;28;20233;-65
2022/02/22 04:23:16;;;;;;;7.38;1.77;;;;;;;2.01;86.33;96778.66;2071480;28;20268;-66
2022/02/22 04:24:18;;;;;;;13.65;1.67;;;;;;;1.89;86.75;96776.47;2070675;28;20229;-66
2022/02/22 04:25:20;;;;;;;7.63;1.98;;;;;;;1.95;86.63;96791.75;2072228;28;20201;-66
2022/02/22 04:26:24;;;;;;;11.63;1.85;;;;;;;1.90;86.83;96785.88;2072403;28;20198;-66
2022/02/22 04:27:25;;;;;;;10.50;2.30;;;;;;;1.89;87.04;96799.72;2071279;28;20597;-66
2022/02/22 04:28:27;;;;;;;7.82;1.75;;;;;;;1.94;87.16;96803.84;2071654;28;20205;-66
2022/02/22 04:29:28;;;;;;;13.60;2.03;;;;;;;1.94;87.21;96802.97;2071197;28;20197;-66
2022/02/22 04:30:30;;;;;;;11.02;2.17;;;;;;;1.94;87.24;96808.13;2072461;28;20201;-66
2022/02/22 04:31:38;;;;;;;10.15;2.08;;;;;;;1.92;87.35;96802.19;2071684;28;20204;-66
2022/02/22 04:32:39;;;;;;;8.15;2.10;;;;;;;1.95;87.31;96807.25;2075451;28;20212;-65
2022/02/22 04:33:41;;;;;;;15.95;2.00;;;;;;;1.90;87.30;96797.09;2077868;28;20200;-66
2022/02/22 04:34:42;;;;;;;8.00;1.98;;;;;;;1.88;87.36;96790.25;2072169;28;20221;-66
2022/02/22 04:35:44;;;;;;;7.50;1.55;;;;;;;1.82;87.52;96793.88;2072569;28;20202;-66
2022/02/22 04:36:45;;;;;;;5.35;1.95;;;;;;;1.90;87.58;96804.84;2072312;28;20229;-66
2022/02/22 04:37:47;;;;;;;11.57;2.08;;;;;;;1.92;87.21;96804.75;2072625;28;20197;-66
2022/02/22 04:38:48;;;;;;;7.70;1.80;;;;;;;1.90;87.18;96802.25;2071961;28;20470;-66
2022/02/22 04:39:50;;;;;;;7.40;1.70;;;;;;;1.94;86.63;96802.97;2071397;28;20226;-66
2022/02/22 04:40:52;;;;;;;6.25;1.80;;;;;;;1.95;86.79;96812.44;2071072;28;20247;-66
2022/02/22 04:41:53;;;;;;;7.32;2.03;;;;;;;1.90;87.05;96819.47;2072295;28;20190;-66
2022/02/22 04:42:55;;;;;;;9.18;1.60;;;;;;;1.87;87.54;96819.56;2071220;28;20205;-66
2022/02/22 04:43:57;;;;;;;5.72;1.65;;;;;;;1.85;87.40;96809.28;2072357;28;20205;-66
2022/02/22 04:44:59;;;;;;;5.25;1.70;;;;;;;1.84;87.81;96824.81;2070818;28;20225;-66
2022/02/22 04:46:00;;;;;;;8.32;2.20;;;;;;;1.67;87.64;96805.53;2072468;28;20685;-66
2022/02/22 04:47:02;;;;;;;8.43;1.90;;;;;;;1.74;87.68;96817.34;2072040;28;20198;-67
2022/02/22 04:48:04;;;;;;;8.80;2.20;;;;;;;1.78;87.70;96828.44;2071986;28;20197;-65
2022/02/22 04:49:09;;;;;;;8.73;2.58;;;;;;;1.82;87.67;96834.34;2072398;28;20677;-66
2022/02/22 04:50:11;;;;;;;9.02;2.00;;;;;;;1.75;87.60;96820.78;2071894;28;20237;-66
2022/02/22 04:51:13;;;;;;;11.98;2.00;;;;;;;1.76;87.44;96822.47;2072611;28;20584;-66
2022/02/22 04:52:14;;;;;;;12.43;1.95;;;;;;;1.72;87.70;96806.22;2071496;28;20205;-66
2022/02/22 04:53:16;;;;;;;16.38;2.30;;;;;;;1.68;87.50;96812.38;2071349;28;20198;-66
2022/02/22 04:54:17;;;;;;;12.52;2.13;;;;;;;1.82;87.55;96818.84;2071412;28;20194;-65